Time;durP1;ratioP1;P1;durP2;ratioP2;P2;SDS_P1;SDS_P2;PMS_P1;PMS_P2;Temp;Humidity;BMP_temperature;BMP_pressure;BME280_temperature;BME280_humidity;BME280_pressure;Samples;Min_cycle;Max_cycle;Signal;HPM_P1;HPM_P2
2022/12/04 00:01:33;;;;;;;;;;;;;;;0.06;100.00;101843.84;5054478;28;19921;-59
2022/12/04 00:03:58;;;;;;;;;;;;;;;0.06;100.00;101841.25;5036053;28;20003;-59
2022/12/04 00:06:24;;;;;;;;;;;;;;;0.08;100.00;101837.03;5036513;28;20360;-59
2022/12/04 00:08:50;;;;;;;;;;;;;;;0.10;100.00;101829.28;5036599;28;19913;-59
2022/12/04 00:11:16;;;;;;;;;;;;;;;0.11;100.00;101828.47;5054309;28;19956;-59
2022/12/04 00:13:41;;;;;;;;;;;;;;;0.06;100.00;101828.31;5053917;28;20299;-61
2022/12/04 00:16:07;;;;;;;;;;;;;;;0.04;100.00;101832.59;5054471;28;20057;-59
2022/12/04 00:18:33;;;;;;;;;;;;;;;0.05;100.00;101828.28;5036697;28;19929;-59
2022/12/04 00:20:58;;;;;;;;;;;;;;;0.02;100.00;101829.09;5036280;28;20011;-59
2022/12/04 00:23:23;;;;;;;;;;;;;;;0.02;100.00;101829.09;5054263;28;19952;-59
2022/12/04 00:25:49;;;;;;;;;;;;;;;0.04;100.00;101826.53;5054350;28;20003;-59
2022/12/04 00:28:15;;;;;;;;;;;;;;;-0.05;100.00;101828.06;5054001;28;19939;-59
2022/12/04 00:30:41;;;;;;;;;;;;;;;-0.08;100.00;101815.03;5036341;28;20431;-59
2022/12/04 00:33:06;;;;;;;;;;;;;;;-0.07;100.00;101821.09;5054036;28;20003;-60
2022/12/04 00:35:31;;;;;;;;;;;;;;;-0.11;100.00;101811.47;5054231;28;20315;-59
2022/12/04 00:37:56;;;;;;;;;;;;;;;-0.08;100.00;101821.91;5035887;28;19943;-58
2022/12/04 00:40:21;;;;;;;;;;;;;;;-0.11;100.00;101822.72;5053897;28;19924;-59
2022/12/04 00:42:47;;;;;;;;;;;;;;;-0.09;100.00;101820.19;5053750;28;19963;-59
2022/12/04 00:45:12;;;;;;;;;;;;;;;-0.09;100.00;101830.53;5054124;28;19924;-59
2022/12/04 00:47:37;;;;;;;;;;;;;;;-0.05;100.00;101828.06;5054006;28;19917;-58
2022/12/04 00:50:03;;;;;;;;;;;;;;;-0.05;100.00;101827.16;5053065;28;19924;-59
2022/12/04 00:52:28;;;;;;;;;;;;;;;-0.02;100.00;101815.19;5053149;28;20287;-58
2022/12/04 00:54:53;;;;;;;;;;;;;;;-0.04;100.00;101816.88;5052261;28;19923;-57
2022/12/04 00:57:18;;;;;;;;;;;;;;;-0.05;100.00;101816.81;5053483;28;19912;-55
2022/12/04 00:59:44;;;;;;;;;;;;;;;-0.07;100.00;101809.03;5053387;28;20287;-58
2022/12/04 01:02:09;;;;;;;;;;;;;;;-0.10;100.00;101811.53;5053353;28;20414;-58
2022/12/04 01:04:34;;;;;;;;;;;;;;;-0.14;100.00;101814.88;5053525;28;19917;-57
2022/12/04 01:06:59;;;;;;;;;;;;;;;-0.12;100.00;101810.59;5053375;28;20011;-58
2022/12/04 01:09:24;;;;;;;;;;;;;;;-0.12;100.00;101813.19;5035612;28;19942;-59
2022/12/04 01:11:50;;;;;;;;;;;;;;;-0.08;100.00;101821.91;5053304;28;20295;-58
2022/12/04 01:14:15;;;;;;;;;;;;;;;-0.08;100.00;101815.03;5053258;28;19916;-58
2022/12/04 01:16:40;;;;;;;;;;;;;;;-0.05;100.00;101816.81;5052686;28;19974;-57
2022/12/04 01:19:06;;;;;;;;;;;;;;;-0.03;100.00;101821.19;5053190;28;20027;-57
2022/12/04 01:21:31;;;;;;;;;;;;;;;-0.01;100.00;101816.97;5053102;28;20321;-56
2022/12/04 01:23:57;;;;;;;;;;;;;;;-0.05;100.00;101822.00;5053097;28;20018;-57
2022/12/04 01:26:23;;;;;;;;;;;;;;;-0.07;100.00;101814.22;5035344;28;20413;-58
2022/12/04 01:28:48;;;;;;;;;;;;;;;-0.03;100.00;101817.75;5052818;28;19916;-57
2022/12/04 01:31:14;;;;;;;;;;;;;;;-0.01;100.00;101810.91;5034776;28;19920;-58
2022/12/04 01:33:40;;;;;;;;;;;;;;;-0.02;100.00;101817.78;5034928;28;20372;-58
2022/12/04 01:36:06;;;;;;;;;;;;;;;-0.01;100.00;101811.78;5054058;28;20018;-59
2022/12/04 01:38:32;;;;;;;;;;;;;;;-0.04;100.00;101808.22;5035121;28;19913;-59
2022/12/04 01:40:57;;;;;;;;;;;;;;;-0.04;100.00;101811.69;5053109;28;19921;-58
2022/12/04 01:43:23;;;;;;;;;;;;;;;0.00;100.00;101807.50;5034871;28;19917;-58
2022/12/04 01:45:49;;;;;;;;;;;;;;;-0.02;100.00;101812.59;5034861;28;19974;-57
2022/12/04 01:48:24;;;;;;;;;;;;;;;-0.02;100.00;101804.84;5052598;28;19955;-58
2022/12/04 01:50:50;;;;;;;;;;;;;;;-0.04;100.00;101808.22;5052300;28;20003;-58
2022/12/04 01:53:15;;;;;;;;;;;;;;;-0.02;100.00;101803.97;5051374;28;20344;-57
2022/12/04 01:55:40;;;;;;;;;;;;;;;0.00;100.00;101807.50;5034664;28;19999;-58
2022/12/04 01:58:06;;;;;;;;;;;;;;;0.03;100.00;101806.69;5052872;28;19963;-58
2022/12/04 02:00:31;;;;;;;;;;;;;;;0.03;100.00;101804.09;5052590;28;19927;-58
2022/12/04 02:02:56;;;;;;;;;;;;;;;0.00;100.00;101813.50;5052870;28;20272;-57
2022/12/04 02:05:22;;;;;;;;;;;;;;;-0.01;100.00;101806.59;5052933;28;20313;-58
2022/12/04 02:07:48;;;;;;;;;;;;;;;0.05;100.00;101815.34;5052745;28;19912;-59
2022/12/04 02:10:15;;;;;;;;;;;;;;;0.05;100.00;101810.19;5034433;28;20413;-58
2022/12/04 02:12:46;;;;;;;;;;;;;;;0.05;100.00;101812.75;5035046;28;19920;-58
2022/12/04 02:15:16;;;;;;;;;;;;;;;0.08;100.00;101813.72;5034695;28;20276;-58
2022/12/04 02:17:41;;;;;;;;;;;;;;;0.10;100.00;101813.75;5034731;28;19920;-60
2022/12/04 02:20:30;;;;;;;;;;;;;;;0.08;100.00;101815.44;5052138;28;19913;-58
2022/12/04 02:23:01;;;;;;;;;;;;;;;0.06;100.00;101817.97;5052178;28;19912;-59
2022/12/04 02:25:39;;;;;;;;;;;;;;;0.12;100.00;101814.69;5052119;28;20282;-58
2022/12/04 02:28:08;;;;;;;;;;;;;;;0.11;100.00;101803.44;5036035;28;20386;-60
2022/12/04 02:30:35;;;;;;;;;;;;;;;0.14;100.00;101807.81;5038506;28;20307;-59
2022/12/04 02:33:17;;;;;;;;;;;;;;;0.16;100.00;101800.97;5038220;28;20003;-59
2022/12/04 02:35:47;;;;;;;;;;;;;;;0.17;100.00;101798.44;5038924;28;20261;-56
2022/12/04 02:38:14;;;;;;;;;;;;;;;0.18;100.00;101792.38;5038388;28;19913;-58
2022/12/04 02:40:57;;;;;;;;;;;;;;;0.13;100.00;101796.59;5055877;28;19913;-58
2022/12/04 02:43:22;;;;;;;;;;;;;;;0.13;100.00;101793.13;5056146;28;20003;-59
2022/12/04 02:45:50;;;;;;;;;;;;;;;0.12;100.00;101799.16;5055735;28;20016;-58
2022/12/04 02:48:17;;;;;;;;;;;;;;;0.13;100.00;101795.72;5038708;28;20015;-59
2022/12/04 02:50:43;;;;;;;;;;;;;;;0.12;100.00;101781.03;5038617;28;19913;-57
2022/12/04 02:53:12;;;;;;;;;;;;;;;0.12;100.00;101778.44;5021528;28;20422;-57
2022/12/04 02:55:39;;;;;;;;;;;;;;;0.13;100.00;101777.59;5038140;28;19921;-58
2022/12/04 02:58:07;;;;;;;;;;;;;;;0.15;100.00;101781.06;5055870;28;19923;-59
2022/12/04 03:00:32;;;;;;;;;;;;;;;0.11;100.00;101772.38;5055772;28;19921;-58
2022/12/04 03:02:58;;;;;;;;;;;;;;;0.09;100.00;101778.38;5037903;28;19909;-58
2022/12/04 03:05:26;;;;;;;;;;;;;;;0.06;100.00;101776.56;5055682;28;19920;-58
2022/12/04 03:07:53;;;;;;;;;;;;;;;0.07;100.00;101783.50;5037546;28;19912;-58
2022/12/04 03:10:21;;;;;;;;;;;;;;;0.05;100.00;101774.81;5037610;28;20355;-58
2022/12/04 03:12:50;;;;;;;;;;;;;;;0.05;100.00;101771.34;5037087;28;20332;-58
2022/12/04 03:15:21;;;;;;;;;;;;;;;0.06;100.00;101771.38;5038981;28;19913;-56
2022/12/04 03:17:49;;;;;;;;;;;;;;;0.05;100.00;101769.66;5037500;28;20360;-59
2022/12/04 03:20:15;;;;;;;;;;;;;;;0.04;100.00;101772.19;5038119;28;20475;-59
2022/12/04 03:22:41;;;;;;;;;;;;;;;0.08;100.00;101777.50;5055333;28;19960;-59
2022/12/04 03:25:06;;;;;;;;;;;;;;;0.08;100.00;101774.00;5055238;28;19913;-58
2022/12/04 03:27:32;;;;;;;;;;;;;;;0.11;100.00;101763.75;5037223;28;19920;-59
2022/12/04 03:30:06;;;;;;;;;;;;;;;0.10;100.00;101770.63;5055379;28;19928;-59
2022/12/04 03:33:10;;;;;;;;;;;;;;;0.07;100.00;101765.38;5055221;28;19958;-60
2022/12/04 03:35:43;;;;;;;;;;;;;;;0.11;100.00;101771.50;5013094;28;19918;-59
2022/12/04 03:38:17;;;;;;;;;;;;;;;0.14;100.00;101771.59;4996361;28;20433;-59
2022/12/04 03:40:45;;;;;;;;;;;;;;;0.13;100.00;101773.28;5036738;28;20290;-59
2022/12/04 03:43:12;;;;;;;;;;;;;;;0.15;100.00;101770.72;5037099;28;19919;-59
2022/12/04 03:45:45;;;;;;;;;;;;;;;0.15;100.00;101769.00;5037009;28;19923;-58
2022/12/04 03:48:14;;;;;;;;;;;;;;;0.14;100.00;101749.16;5036959;28;19939;-59
2022/12/04 03:50:47;;;;;;;;;;;;;;;0.16;100.00;101759.53;5037338;28;19916;-59
2022/12/04 03:53:29;;;;;;;;;;;;;;;0.17;100.00;101757.00;5036956;28;19913;-60
2022/12/04 03:55:59;;;;;;;;;;;;;;;0.14;100.00;101759.53;5037097;28;19913;-59
2022/12/04 03:58:30;;;;;;;;;;;;;;;0.17;100.00;101745.78;5054619;28;19976;-59
2022/12/04 04:00:55;;;;;;;;;;;;;;;0.17;100.00;101753.53;5036983;28;19917;-59
2022/12/04 04:03:25;;;;;;;;;;;;;;;0.13;100.00;101743.94;5037070;28;19923;-59
2022/12/04 04:05:52;;;;;;;;;;;;;;;0.10;100.00;101744.75;5036598;28;20311;-60
2022/12/04 04:08:25;;;;;;;;;;;;;;;0.08;100.00;101753.31;5036449;28;19916;-58
2022/12/04 04:10:50;;;;;;;;;;;;;;;0.12;100.00;101742.19;5037444;28;19912;-58
2022/12/04 04:24:17;;;;;;;;;;;;;;;0.20;100.00;101730.31;5054059;28;19924;-58
2022/12/04 04:26:46;;;;;;;;;;;;;;;0.18;100.00;101737.16;5036446;28;19962;-58
2022/12/04 04:29:11;;;;;;;;;;;;;;;0.17;100.00;101740.59;5036308;28;19964;-58
2022/12/04 04:31:38;;;;;;;;;;;;;;;0.15;100.00;101735.34;5037004;28;20406;-59
2022/12/04 04:34:03;;;;;;;;;;;;;;;0.14;100.00;101736.22;5037138;28;19935;-58
2022/12/04 04:36:36;;;;;;;;;;;;;;;0.17;100.00;101741.47;5054343;28;19917;-58
2022/12/04 04:39:05;;;;;;;;;;;;;;;0.18;100.00;101739.72;5036197;28;20262;-58
2022/12/04 04:41:33;;;;;;;;;;;;;;;0.19;100.00;101734.59;5036072;28;19924;-58
2022/12/04 04:44:02;;;;;;;;;;;;;;;0.20;100.00;101745.84;5054033;28;19913;-58
2022/12/04 04:46:28;;;;;;;;;;;;;;;0.18;100.00;101752.69;5036063;28;19955;-59
2022/12/04 04:48:55;;;;;;;;;;;;;;;0.19;100.00;101749.25;5035959;28;19958;-59
2022/12/04 04:51:20;;;;;;;;;;;;;;;0.15;100.00;101750.88;5052742;28;19966;-60
2022/12/04 04:53:54;;;;;;;;;;;;;;;0.15;100.00;101758.66;5053646;28;19916;-59
2022/12/04 04:56:20;;;;;;;;;;;;;;;0.18;100.00;101750.09;5053655;28;19982;-59
2022/12/04 04:58:45;;;;;;;;;;;;;;;0.18;100.00;101752.69;5035323;28;19963;-58
2022/12/04 05:01:11;;;;;;;;;;;;;;;0.17;100.00;101764.78;5062420;28;20018;-58
2022/12/04 05:03:37;;;;;;;;;;;;;;;0.18;100.00;101752.69;5055410;28;19927;-59
2022/12/04 05:06:02;;;;;;;;;;;;;;;0.20;100.00;101749.31;5042479;28;19913;-58
2022/12/04 05:08:27;;;;;;;;;;;;;;;0.22;100.00;101749.34;5035330;28;19921;-60
2022/12/04 05:10:52;;;;;;;;;;;;;;;0.22;100.00;101757.09;5063418;28;20283;-59
2022/12/04 05:13:18;;;;;;;;;;;;;;;0.19;100.00;101751.84;5072429;28;20332;-58
2022/12/04 05:15:43;;;;;;;;;;;;;;;0.20;100.00;101754.50;5073037;28;19916;-59
2022/12/04 05:18:09;;;;;;;;;;;;;;;0.19;100.00;101757.03;5055370;28;20023;-59
2022/12/04 05:20:37;;;;;;;;;;;;;;;0.21;100.00;101758.81;5072979;28;19912;-59
2022/12/04 05:23:02;;;;;;;;;;;;;;;0.20;100.00;101759.66;5055357;28;19946;-59
2022/12/04 05:25:27;;;;;;;;;;;;;;;0.20;100.00;101753.63;5072884;28;20392;-59
2022/12/04 05:27:53;;;;;;;;;;;;;;;0.24;100.00;101765.78;5055029;28;20370;-59
2022/12/04 05:30:18;;;;;;;;;;;;;;;0.22;100.00;101775.22;5072790;28;20020;-58
2022/12/04 05:32:43;;;;;;;;;;;;;;;0.23;100.00;101761.44;5055514;28;19922;-58
2022/12/04 05:35:08;;;;;;;;;;;;;;;0.21;100.00;101774.34;5072959;28;19920;-58
2022/12/04 05:37:37;;;;;;;;;;;;;;;0.24;100.00;101781.31;5072903;28;20291;-58
2022/12/04 05:40:03;;;;;;;;;;;;;;;0.25;100.00;101767.53;5054811;28;19916;-59
2022/12/04 05:42:28;;;;;;;;;;;;;;;0.22;100.00;101764.88;5054614;28;20406;-60
2022/12/04 05:44:53;;;;;;;;;;;;;;;0.20;100.00;101757.09;5072443;28;19924;-58
2022/12/04 05:47:18;;;;;;;;;;;;;;;0.20;100.00;101772.63;5072487;28;19987;-59
2022/12/04 05:49:43;;;;;;;;;;;;;;;0.22;100.00;101765.75;5072679;28;19963;-59
2022/12/04 05:52:09;;;;;;;;;;;;;;;0.16;100.00;101768.19;5072433;28;19922;-59
2022/12/04 05:54:34;;;;;;;;;;;;;;;0.20;100.00;101759.66;5072566;28;19912;-59
2022/12/04 05:57:00;;;;;;;;;;;;;;;0.21;100.00;101768.28;5054721;28;19918;-59
2022/12/04 05:59:25;;;;;;;;;;;;;;;0.19;100.00;101757.91;5072303;28;19916;-59
2022/12/04 06:01:50;;;;;;;;;;;;;;;0.18;100.00;101765.63;5054779;28;19981;-58
2022/12/04 06:04:15;;;;;;;;;;;;;;;0.17;100.00;101767.38;5072504;28;19966;-57
2022/12/04 06:06:40;;;;;;;;;;;;;;;0.19;100.00;101772.56;5072669;28;20270;-59
2022/12/04 06:09:06;;;;;;;;;;;;;;;0.18;100.00;101765.63;5072358;28;20485;-58
2022/12/04 06:11:35;;;;;;;;;;;;;;;0.18;100.00;101769.09;5037881;28;19912;-59
2022/12/04 06:14:00;;;;;;;;;;;;;;;0.17;100.00;101769.06;5072213;28;19953;-58
2022/12/04 06:16:27;;;;;;;;;;;;;;;0.20;100.00;101762.25;5072581;28;19920;-58
2022/12/04 06:18:53;;;;;;;;;;;;;;;0.24;100.00;101763.19;5054261;28;20302;-58
2022/12/04 06:21:19;;;;;;;;;;;;;;;0.24;100.00;101756.28;5054127;28;19923;-58
2022/12/04 06:23:44;;;;;;;;;;;;;;;0.26;100.00;101759.81;5054055;28;19912;-59
2022/12/04 06:26:09;;;;;;;;;;;;;;;0.28;100.00;101767.59;5053946;28;19916;-58
2022/12/04 06:28:35;;;;;;;;;;;;;;;0.25;100.00;101763.22;5054028;28;19924;-58
2022/12/04 06:31:05;;;;;;;;;;;;;;;0.24;100.00;101763.19;5072028;28;19924;-59
2022/12/04 06:33:30;;;;;;;;;;;;;;;0.23;100.00;101764.94;5071926;28;20409;-58
2022/12/04 06:36:04;;;;;;;;;;;;;;;0.23;100.00;101766.63;5054306;28;19912;-59
2022/12/04 06:38:29;;;;;;;;;;;;;;;0.21;100.00;101763.09;5071930;28;19966;-59
2022/12/04 06:40:54;;;;;;;;;;;;;;;0.20;100.00;101762.25;5071951;28;19912;-58
2022/12/04 06:43:20;;;;;;;;;;;;;;;0.22;100.00;101765.75;5053862;28;19916;-58
2022/12/04 06:45:45;;;;;;;;;;;;;;;0.22;100.00;101762.28;5054218;28;20051;-58
2022/12/04 06:48:10;;;;;;;;;;;;;;;0.22;100.00;101754.50;5072086;28;19968;-57
2022/12/04 06:50:35;;;;;;;;;;;;;;;0.21;100.00;101758.81;5071795;28;19969;-58
2022/12/04 06:53:01;;;;;;;;;;;;;;;0.20;100.00;101757.09;5072367;28;19912;-59
2022/12/04 06:55:26;;;;;;;;;;;;;;;0.21;100.00;101761.41;5071982;28;19931;-59
2022/12/04 06:57:51;;;;;;;;;;;;;;;0.23;100.00;101754.56;5071987;28;19916;-58
2022/12/04 07:00:16;;;;;;;;;;;;;;;0.23;100.00;101754.56;5071600;28;19926;-60
2022/12/04 07:02:42;;;;;;;;;;;;;;;0.24;100.00;101755.41;5072009;28;19962;-59
2022/12/04 07:05:07;;;;;;;;;;;;;;;0.25;100.00;101758.06;5071702;28;19927;-60
2022/12/04 07:07:32;;;;;;;;;;;;;;;0.25;100.00;101760.66;5071737;28;19916;-59
2022/12/04 07:09:57;;;;;;;;;;;;;;;0.22;100.00;101760.56;5071667;28;19920;-59
2022/12/04 07:12:23;;;;;;;;;;;;;;;0.23;100.00;101753.69;5071633;28;19916;-59
2022/12/04 07:14:48;;;;;;;;;;;;;;;0.24;100.00;101760.59;5074386;28;19920;-59
2022/12/04 07:17:13;;;;;;;;;;;;;;;0.25;100.00;101752.88;5075447;28;20299;-59
2022/12/04 07:19:38;;;;;;;;;;;;;;;0.25;100.00;101755.47;5077271;28;19917;-59
2022/12/04 07:22:04;;;;;;;;;;;;;;;0.26;100.00;101753.75;5076646;28;19916;-60
2022/12/04 07:24:29;;;;;;;;;;;;;;;0.25;100.00;101757.19;5075302;28;19912;-58
2022/12/04 07:26:54;;;;;;;;;;;;;;;0.21;100.00;101756.22;5074135;28;19917;-59
2022/12/04 07:29:19;;;;;;;;;;;;;;;0.23;100.00;101758.88;5074559;28;19917;-59
2022/12/04 07:31:45;;;;;;;;;;;;;;;0.25;100.00;101764.94;5082753;28;19920;-58
2022/12/04 07:34:10;;;;;;;;;;;;;;;0.24;100.00;101758.88;5056428;28;19916;-58
2022/12/04 07:36:35;;;;;;;;;;;;;;;0.25;100.00;101760.66;5073931;28;19912;-60
2022/12/04 07:39:00;;;;;;;;;;;;;;;0.24;100.00;101758.88;5075011;28;19915;-59
2022/12/04 07:41:26;;;;;;;;;;;;;;;0.30;100.00;101764.22;5057077;28;19912;-59
2022/12/04 07:43:51;;;;;;;;;;;;;;;0.28;100.00;101759.84;5074545;28;19920;-59
2022/12/04 07:46:17;;;;;;;;;;;;;;;0.29;100.00;101761.59;5056711;28;19928;-60
2022/12/04 07:48:43;;;;;;;;;;;;;;;0.32;100.00;101762.53;5056714;28;19912;-59
2022/12/04 07:51:10;;;;;;;;;;;;;;;0.26;100.00;101757.22;5056480;28;19909;-59
2022/12/04 07:53:35;;;;;;;;;;;;;;;0.27;100.00;101771.91;5074594;28;19912;-59
2022/12/04 07:56:01;;;;;;;;;;;;;;;0.33;100.00;101781.53;5056798;28;19908;-59
2022/12/04 07:58:26;;;;;;;;;;;;;;;0.32;100.00;101775.47;5056748;28;20632;-59
2022/12/04 08:00:51;;;;;;;;;;;;;;;0.33;100.00;101776.34;5074377;28;19921;-58
2022/12/04 08:03:16;;;;;;;;;;;;;;;0.32;100.00;101791.00;5056313;28;19916;-57
2022/12/04 08:05:42;;;;;;;;;;;;;;;0.34;100.00;101785.88;5073473;28;19920;-58
2022/12/04 08:08:07;;;;;;;;;;;;;;;0.35;100.00;101780.72;5074620;28;19977;-58
2022/12/04 08:10:32;;;;;;;;;;;;;;;0.40;100.00;101778.25;5074223;28;19916;-59
2022/12/04 08:12:57;;;;;;;;;;;;;;;0.40;100.00;101792.09;5073731;28;19916;-59
2022/12/04 08:15:22;;;;;;;;;;;;;;;0.41;100.00;101790.34;5073764;28;19939;-59
2022/12/04 08:17:48;;;;;;;;;;;;;;;0.38;100.00;101792.91;5074321;28;20295;-59
2022/12/04 08:20:13;;;;;;;;;;;;;;;0.35;100.00;101798.00;5073562;28;19935;-60
2022/12/04 08:22:38;;;;;;;;;;;;;;;0.39;100.00;101795.50;5075272;28;19916;-59
2022/12/04 08:25:03;;;;;;;;;;;;;;;0.41;100.00;101806.78;5072848;28;19972;-58
2022/12/04 08:27:29;;;;;;;;;;;;;;;0.45;100.00;101799.97;5073484;28;19916;-59
2022/12/04 08:29:54;;;;;;;;;;;;;;;0.46;100.00;101797.41;5073841;28;19920;-60
2022/12/04 08:32:19;;;;;;;;;;;;;;;0.43;100.00;101802.53;5073621;28;19916;-59
2022/12/04 08:34:44;;;;;;;;;;;;;;;0.47;100.00;101799.16;5073787;28;20020;-60
2022/12/04 08:37:09;;;;;;;;;;;;;;;0.48;100.00;101802.63;5073442;28;19912;-59
2022/12/04 08:39:35;;;;;;;;;;;;;;;0.49;100.00;101800.09;5073632;28;19917;-60
2022/12/04 08:42:00;;;;;;;;;;;;;;;0.52;100.00;101799.28;5073467;28;19924;-59
2022/12/04 08:44:25;;;;;;;;;;;;;;;0.57;100.00;101800.25;5073636;28;19912;-59
2022/12/04 08:46:50;;;;;;;;;;;;;;;0.62;100.00;101806.41;5055304;28;19970;-59
2022/12/04 08:49:15;;;;;;;;;;;;;;;0.66;100.00;101805.66;5073479;28;20030;-59
2022/12/04 08:51:42;;;;;;;;;;;;;;;0.61;100.00;101811.56;5073356;28;19963;-59
2022/12/04 08:54:07;;;;;;;;;;;;;;;0.63;100.00;101820.25;5072779;28;20395;-59
2022/12/04 08:56:33;;;;;;;;;;;;;;;0.65;100.00;101823.72;5055215;28;20504;-60
2022/12/04 08:58:58;;;;;;;;;;;;;;;0.65;100.00;101824.63;5073100;28;19916;-59
2022/12/04 09:01:24;;;;;;;;;;;;;;;0.65;100.00;101815.97;5055276;28;19917;-59
2022/12/04 09:03:49;;;;;;;;;;;;;;;0.57;100.00;101821.84;5072407;28;19920;-59
2022/12/04 09:06:15;;;;;;;;;;;;;;;0.56;100.00;101829.56;5066830;28;19916;-58
2022/12/04 09:08:40;;;;;;;;;;;;;;;0.58;100.00;101823.59;5072989;28;20367;-59
2022/12/04 09:11:10;;;;;;;;;;;;;;;0.65;100.00;101828.91;5055008;28;19908;-59
2022/12/04 09:13:36;;;;;;;;;;;;;;;0.62;100.00;101834.03;5073022;28;19912;-58
2022/12/04 09:16:06;;;;;;;;;;;;;;;0.60;100.00;101839.19;5072780;28;19924;-59
2022/12/04 09:18:31;;;;;;;;;;;;;;;0.62;100.00;101831.44;5054527;28;19920;-58
2022/12/04 09:20:57;;;;;;;;;;;;;;;0.65;100.00;101831.50;5072303;28;19919;-59
2022/12/04 09:23:23;;;;;;;;;;;;;;;0.61;100.00;101829.72;5053168;28;19919;-58
2022/12/04 09:25:48;;;;;;;;;;;;;;;0.64;100.00;101827.19;5054391;28;19917;-59
2022/12/04 09:28:13;;;;;;;;;;;;;;;0.71;100.00;101823.88;5054344;28;19919;-61
2022/12/04 09:30:39;;;;;;;;;;;;;;;0.71;100.00;101822.16;5072587;28;19920;-62
2022/12/04 09:33:04;;;;;;;;;;;;;;;0.72;100.00;101823.06;5054848;28;20031;-64
2022/12/04 09:35:29;;;;;;;;;;;;;;;0.73;100.00;101823.06;5072918;28;19927;-63
2022/12/04 09:37:54;;;;;;;;;;;;;;;0.79;100.00;101827.56;5072481;28;20333;-62
2022/12/04 09:40:29;;;;;;;;;;;;;;;0.80;100.00;101829.28;5054557;28;19931;-63
2022/12/04 09:43:03;;;;;;;;;;;;;;;0.81;100.00;101820.66;5054989;28;20011;-63
2022/12/04 09:45:28;;;;;;;;;;;;;;;0.82;100.00;101823.28;5072713;28;19908;-63
2022/12/04 09:47:57;;;;;;;;;;;;;;;0.85;100.00;101825.06;5073033;28;19923;-63
2022/12/04 09:50:24;;;;;;;;;;;;;;;0.90;100.00;101823.47;5054594;28;20002;-63
2022/12/04 09:52:56;;;;;;;;;;;;;;;0.87;100.00;101823.41;5072543;28;20406;-63
2022/12/04 09:55:30;;;;;;;;;;;;;;;0.92;100.00;101822.66;5072717;28;19912;-62
2022/12/04 09:57:56;;;;;;;;;;;;;;;0.90;100.00;101824.34;5072611;28;19920;-63
2022/12/04 10:00:21;;;;;;;;;;;;;;;0.89;100.00;101819.13;5054476;28;20287;-63
2022/12/04 10:02:55;;;;;;;;;;;;;;;0.93;100.00;101828.72;5054659;28;19920;-63
2022/12/04 10:05:30;;;;;;;;;;;;;;;0.89;100.00;101827.78;5072194;28;20003;-62
2022/12/04 10:08:07;;;;;;;;;;;;;;;0.84;100.00;101825.94;5054152;28;20362;-61
2022/12/04 10:10:37;;;;;;;;;;;;;;;0.89;100.00;101821.72;5072416;28;19918;-62
2022/12/04 10:13:02;;;;;;;;;;;;;;;0.97;100.00;101825.34;5054388;28;19919;-62
2022/12/04 10:15:29;;;;;;;;;;;;;;;1.01;100.00;101819.41;5072234;28;20345;-62
2022/12/04 10:18:13;;;;;;;;;;;;;;;0.97;100.00;101820.16;5054009;28;19908;-61
2022/12/04 10:20:57;;;;;;;;;;;;;;;1.05;100.00;101823.81;5072498;28;19909;-62
2022/12/04 10:23:25;;;;;;;;;;;;;;;0.97;100.00;101825.34;5054341;28;19908;-62
2022/12/04 10:25:51;;;;;;;;;;;;;;;0.96;100.00;101823.63;5071933;28;19965;-63
2022/12/04 10:28:16;;;;;;;;;;;;;;;0.98;100.00;101821.91;5054171;28;19913;-62
2022/12/04 10:30:41;;;;;;;;;;;;;;;1.04;100.00;101819.47;5072438;28;19917;-63
2022/12/04 10:33:21;;;;;;;;;;;;;;;1.07;100.00;101810.03;5054157;28;19923;-63
2022/12/04 10:35:48;;;;;;;;;;;;;;;1.12;100.00;101804.94;5072178;28;19916;-63
2022/12/04 10:38:28;;;;;;;;;;;;;;;1.12;100.00;101799.75;5072574;28;19919;-63
2022/12/04 10:40:55;;;;;;;;;;;;;;;1.15;100.00;101810.19;5072038;28;19993;-62
2022/12/04 10:43:39;;;;;;;;;;;;;;;1.22;100.00;101814.69;5054209;28;19912;-62
2022/12/04 10:46:04;;;;;;;;;;;;;;;1.21;100.00;101812.91;5037372;28;20371;-62
2022/12/04 10:48:36;;;;;;;;;;;;;;;1.17;100.00;101798.13;5038008;28;19962;-63
2022/12/04 10:51:02;;;;;;;;;;;;;;;1.24;100.00;101809.50;5058091;28;19918;-63
2022/12/04 10:53:29;;;;;;;;;;;;;;;1.30;100.00;101807.03;5057909;28;20007;-63
2022/12/04 10:55:54;;;;;;;;;;;;;;;1.26;100.00;101807.81;5058291;28;19912;-64
2022/12/04 10:58:19;;;;;;;;;;;;;;;1.24;100.00;101804.31;5075907;28;19932;-63
2022/12/04 11:00:45;;;;;;;;;;;;;;;1.29;100.00;101798.38;5075817;28;19924;-62
2022/12/04 11:03:26;;;;;;;;;;;;;;;1.30;100.00;101801.84;5058495;28;20011;-63
2022/12/04 11:05:55;;;;;;;;;;;;;;;1.24;100.00;101802.59;5057839;28;19957;-63
2022/12/04 11:08:23;;;;;;;;;;;;;;;1.20;100.00;101803.38;5077963;28;19912;-62
2022/12/04 11:10:55;;;;;;;;;;;;;;;1.23;100.00;101790.47;5057735;28;19920;-62
2022/12/04 11:13:22;;;;;;;;;;;;;;;1.21;100.00;101791.28;5041016;28;19912;-62
2022/12/04 11:15:51;;;;;;;;;;;;;;;1.25;100.00;101798.31;5075504;28;20371;-62
2022/12/04 11:18:27;;;;;;;;;;;;;;;1.20;100.00;101792.16;5040814;28;19919;-62
2022/12/04 11:20:53;;;;;;;;;;;;;;;1.24;100.00;101791.34;5075263;28;19912;-62
2022/12/04 11:23:18;;;;;;;;;;;;;;;1.23;100.00;101785.28;5057691;28;19912;-61
2022/12/04 11:25:45;;;;;;;;;;;;;;;1.18;100.00;101786.91;5057704;28;19927;-62
2022/12/04 11:28:11;;;;;;;;;;;;;;;1.17;100.00;101771.34;5057227;28;19992;-62
2022/12/04 11:30:36;;;;;;;;;;;;;;;1.13;100.00;101778.19;5040410;28;19926;-63
2022/12/04 11:33:02;;;;;;;;;;;;;;;1.05;100.00;101775.41;5057042;28;19917;-61
2022/12/04 11:35:28;;;;;;;;;;;;;;;1.04;100.00;101772.78;5040699;28;19912;-63
2022/12/04 11:37:57;;;;;;;;;;;;;;;1.06;100.00;101782.34;5057283;28;19955;-63
2022/12/04 11:40:22;;;;;;;;;;;;;;;1.05;100.00;101775.41;5074891;28;20015;-63
2022/12/04 11:43:06;;;;;;;;;;;;;;;1.09;100.00;101768.56;5075090;28;19918;-63
2022/12/04 11:45:32;;;;;;;;;;;;;;;1.02;100.00;101767.56;5075187;28;20278;-62
2022/12/04 11:48:05;;;;;;;;;;;;;;;1.00;100.00;101770.97;5057234;28;19916;-63
2022/12/04 11:50:43;;;;;;;;;;;;;;;0.98;100.00;101768.38;5056705;28;19916;-63
2022/12/04 11:53:31;;;;;;;;;;;;;;;1.02;100.00;101762.38;5074060;28;19965;-63
2022/12/04 11:56:06;;;;;;;;;;;;;;;1.01;100.00;101773.63;5063502;28;20397;-62
2022/12/04 11:58:43;;;;;;;;;;;;;;;0.96;100.00;101759.66;5057092;28;19936;-63
2022/12/04 12:01:24;;;;;;;;;;;;;;;0.95;100.00;101767.41;5074801;28;19927;-64
2022/12/04 12:03:55;;;;;;;;;;;;;;;0.98;100.00;101763.19;5056835;28;19956;-63
2022/12/04 12:06:23;;;;;;;;;;;;;;;0.98;100.00;101751.94;5056465;28;19912;-62
2022/12/04 12:08:48;;;;;;;;;;;;;;;0.97;100.00;101756.22;5074588;28;19912;-62
2022/12/04 12:11:14;;;;;;;;;;;;;;;0.98;100.00;101755.41;5074108;28;20004;-62
2022/12/04 12:13:45;;;;;;;;;;;;;;;0.95;100.00;101757.03;5074516;28;19956;-62
2022/12/04 12:16:20;;;;;;;;;;;;;;;0.98;100.00;101764.88;5056178;28;19912;-62
2022/12/04 12:18:48;;;;;;;;;;;;;;;0.93;100.00;101753.56;5056504;28;19908;-62
2022/12/04 12:21:26;;;;;;;;;;;;;;;0.84;100.00;101754.25;5073833;28;19912;-62
2022/12/04 12:24:01;;;;;;;;;;;;;;;0.78;100.00;101753.22;5054713;28;19913;-63
2022/12/04 12:26:29;;;;;;;;;;;;;;;0.88;100.00;101761.22;5055387;28;20357;-62
2022/12/04 12:28:57;;;;;;;;;;;;;;;0.86;100.00;101751.66;5073286;28;19920;-62
2022/12/04 12:31:36;;;;;;;;;;;;;;;0.89;100.00;101755.19;5071343;28;20516;-63
2022/12/04 12:34:13;;;;;;;;;;;;;;;0.89;100.00;101757.78;5038794;28;19916;-63
2022/12/04 12:36:40;;;;;;;;;;;;;;;0.89;100.00;101749.13;5055214;28;19916;-63
2022/12/04 12:39:13;;;;;;;;;;;;;;;0.87;100.00;101756.91;5056107;28;19916;-61
2022/12/04 12:41:42;;;;;;;;;;;;;;;0.80;100.00;101749.81;5055483;28;19919;-61
2022/12/04 12:44:19;;;;;;;;;;;;;;;0.76;100.00;101753.16;5074001;28;19916;-62
2022/12/04 12:47:00;;;;;;;;;;;;;;;0.75;100.00;101742.78;5055361;28;19951;-61
2022/12/04 12:49:30;;;;;;;;;;;;;;;0.73;100.00;101749.66;5055638;28;20293;-61